Portland, New York
Current Conditions -  °F | °C
As of 8:53 AM on Tuesday 21 Oct 2014 (Local Time) from KDKK Reporting Station
Overcast Overcast  
Wind Chill: 11°   Ceiling: 4600
Heat Index: 11°   Visibility: 10mi
Dew Point:   Wind: 7mph
Humidity: 83%   Direction: 310°NW
Pressure: 29.84"   Gusts: NA
Location:  42.38°N, 79.47°W
Report Text: KDKK 211253Z AUTO 31006KT 10SM SCT029 OVC046 11/08 A2984 RMK AO2 SLP107 T01110083
Loading
Personal Weather Stations






























Interactive Weather Map
Tropical Storm Tracking
New forecast layout! Learn more

10-Day Weather Forecast

Advertisements
Track Severe Weather on mobile